Henderson, AR (72544)

10:20 AM CDT on August 29, 2015 (GMT -0500)
Dogwood Park | | Change Station
CLOSE
Current Station
Personal Weather Station
Location: Mountain Home, AR
Elevation: 814 ft
Nearby Weather Stations

Elev 814 ft 36.39 °N, 92.30 °W | Updated 13 seconds ago

Thunderstorm
Thunderstorm
64.9 °F
Feels Like 64.9 °F
N
0.0
Wind Variable Wind from SSW
Gusts 0.0 mph

Today
High -- | Low -- °F
--% Chance of Precip.
Yesterday
High -- | Low -- °F
Precip. -- in
6:37 AM 7:41 PM
Full, 100% visible
Pressure 30.06 in
Visibility 7.0 miles
Clouds Overcast 6500 ft
Dew Point 65 °F
Humidity 99%
Rainfall 0.66 in
Snow Depth Not available.
UV 1.0 out of 12
Pollen 9.60 out of 12
Air Quality Not available.
Flu Activity Not available.
METAR KBPK 291453Z AUTO 18003KT 7SM OVC065 18/17 A3008 RMK AO2 LTG DSNT NE-S RAE33 TSE00B05E20 SLP179 P0002 60020 T01830167 53006
Pressure 30.06 in
Visibility 7.0 miles
Clouds Overcast 6500 ft
Dew Point 65 °F
Humidity 99%
Rainfall 0.66 in
Snow Depth Not available.
UV 1.0 out of 12
Pollen 9.60 out of 12
Air Quality Not available.
Flu Activity Not available.
METAR KBPK 291453Z AUTO 18003KT 7SM OVC065 18/17 A3008 RMK AO2 LTG DSNT NE-S RAE33 TSE00B05E20 SLP179 P0002 60020 T01830167 53006

10-Day Weather Forecast

×

Almanac

Astronomy

Aug. 29, 2015 Rise Set
Actual Time
Civil Twilight
Nautical Twilight
Astronomical Twilight
Moon
Length of Visible Light
Length of Day
Tomorrow will be .
, % of the Moon is Illuminated

Today's Extremes

State Highs State Lows

Community

WunderPhotos

Upload Photos

1,850,694 photos uploaded!

WunderBlogs® & News

Nearby

Air Quality

  Air Quality AQ Index Pollutant
Not available.

Snow Depth

Station Depth Elevation

Earthquake Activity

City Distance Mag. Time & Date
Minimum magnitude displayed is 2.5.

Coastal Water Temperatures

Place Temperature

Stations

Nearby Weather Stations

Station Location Temp. Windchill Dew Point Humidity Wind Precip. Elev Updated Type